Time;durP1;ratioP1;P1;durP2;ratioP2;P2;SDS_P1;SDS_P2;PMS_P1;PMS_P2;Temp;Humidity;BMP_temperature;BMP_pressure;BME280_temperature;BME280_humidity;BME280_pressure;Samples;Min_cycle;Max_cycle;Signal;HPM_P1;HPM_P2
2023/08/23 00:01:50;;;;;;;4.68;1.55;;;15.70;99.90;;;;;;5030676;28;20033;-53
2023/08/23 00:04:19;;;;;;;2.92;1.50;;;15.60;99.90;;;;;;5030494;28;20493;-49
2023/08/23 00:06:44;;;;;;;4.60;1.53;;;15.50;99.90;;;;;;5030763;28;20041;-51
2023/08/23 00:09:10;;;;;;;6.95;2.00;;;15.50;99.90;;;;;;5030285;28;20468;-50
2023/08/23 00:11:36;;;;;;;4.43;1.40;;;15.50;99.90;;;;;;5030782;28;20034;-51
2023/08/23 00:14:02;;;;;;;3.28;1.60;;;15.40;99.90;;;;;;5030605;28;20026;-54
2023/08/23 00:16:28;;;;;;;3.05;1.50;;;15.40;99.90;;;;;;5030595;28;20438;-54
2023/08/23 00:18:53;;;;;;;5.47;1.70;;;15.40;99.90;;;;;;5030942;28;20037;-55
2023/08/23 00:21:19;;;;;;;4.47;1.88;;;15.40;99.90;;;;;;5030473;28;20037;-49
2023/08/23 00:23:45;;;;;;;3.70;1.60;;;15.40;99.90;;;;;;5030649;28;20037;-55
2023/08/23 00:26:13;;;;;;;4.63;1.70;;;15.50;99.90;;;;;;5034286;28;20378;-52
2023/08/23 00:28:40;;;;;;;3.88;1.40;;;15.40;99.90;;;;;;5034767;28;20112;-53
2023/08/23 00:31:06;;;;;;;5.25;1.50;;;15.40;99.90;;;;;;5035100;28;20482;-54
2023/08/23 00:33:33;;;;;;;8.70;1.80;;;15.40;99.90;;;;;;5016615;28;20104;-50
2023/08/23 00:35:59;;;;;;;3.33;1.42;;;15.40;99.90;;;;;;5016883;28;20104;-52
2023/08/23 00:38:25;;;;;;;4.18;1.42;;;15.30;99.90;;;;;;5016569;28;20467;-54
2023/08/23 00:40:50;;;;;;;4.28;1.35;;;15.30;99.90;;;;;;5016609;28;20033;-55
2023/08/23 00:43:16;;;;;;;2.97;1.33;;;15.30;99.90;;;;;;5034152;28;20034;-52
2023/08/23 00:45:43;;;;;;;3.55;1.40;;;15.20;99.90;;;;;;5016583;28;20060;-53
2023/08/23 00:48:12;;;;;;;5.90;1.73;;;15.20;99.90;;;;;;5016185;28;20029;-54
2023/08/23 00:50:40;;;;;;;6.10;1.80;;;15.30;99.90;;;;;;5016489;28;20036;-54
2023/08/23 00:53:07;;;;;;;3.35;1.67;;;15.30;99.90;;;;;;5015503;28;20025;-55
2023/08/23 00:55:33;;;;;;;6.20;1.70;;;15.30;99.90;;;;;;5016423;28;20034;-53
2023/08/23 00:57:59;;;;;;;2.75;1.40;;;15.30;99.90;;;;;;5016198;28;20025;-53
2023/08/23 01:00:26;;;;;;;3.75;1.58;;;15.30;99.90;;;;;;5034000;28;20109;-55
2023/08/23 01:02:52;;;;;;;3.30;1.50;;;15.30;99.90;;;;;;5016034;28;20029;-53
2023/08/23 01:05:18;;;;;;;3.50;1.55;;;15.20;99.90;;;;;;5016154;28;20375;-53
2023/08/23 01:08:00;;;;;;;2.97;1.50;;;15.20;99.90;;;;;;5033733;28;20109;-55
2023/08/23 01:10:38;;;;;;;3.20;1.50;;;15.20;99.90;;;;;;5016278;28;20044;-55
2023/08/23 01:13:16;;;;;;;3.88;1.83;;;15.10;99.90;;;;;;5033626;28;20030;-55
2023/08/23 01:15:43;;;;;;;5.82;1.95;;;15.10;99.90;;;;;;5033885;28;20025;-54
2023/08/23 01:18:10;;;;;;;3.50;1.52;;;15.10;99.90;;;;;;5015854;28;20038;-54
2023/08/23 01:20:37;;;;;;;3.72;1.70;;;15.00;99.90;;;;;;5033898;28;20022;-52
2023/08/23 01:23:13;;;;;;;7.68;1.70;;;15.00;99.90;;;;;;5016336;28;20136;-55
2023/08/23 01:25:43;;;;;;;5.75;2.15;;;15.00;99.90;;;;;;5016276;28;20144;-52
2023/08/23 01:28:10;;;;;;;3.70;2.03;;;15.00;99.90;;;;;;5016105;28;20045;-54
2023/08/23 01:30:38;;;;;;;6.50;2.50;;;15.10;99.90;;;;;;5016197;28;20029;-55
2023/08/23 01:33:14;;;;;;;4.72;1.85;;;15.10;99.90;;;;;;5033405;28;20035;-54
2023/08/23 01:36:04;;;;;;;4.30;1.85;;;15.10;99.90;;;;;;5033528;28;20112;-56
2023/08/23 01:38:30;;;;;;;4.55;1.83;;;15.00;99.90;;;;;;5033198;28;20034;-55
2023/08/23 01:40:57;;;;;;;5.50;2.05;;;15.10;99.90;;;;;;5015812;28;20033;-54
2023/08/23 01:43:23;;;;;;;3.67;1.73;;;15.10;99.90;;;;;;5015316;28;20083;-54
2023/08/23 01:45:48;;;;;;;4.90;1.90;;;15.10;99.90;;;;;;5033393;28;20041;-54
2023/08/23 01:48:14;;;;;;;5.20;1.77;;;15.10;99.90;;;;;;5015294;28;20037;-55
2023/08/23 01:50:40;;;;;;;4.88;1.60;;;15.10;99.90;;;;;;5033158;28;20560;-54
2023/08/23 01:53:06;;;;;;;5.82;2.22;;;15.10;99.90;;;;;;5015181;28;20021;-54
2023/08/23 01:55:32;;;;;;;3.58;1.80;;;15.00;99.90;;;;;;4999166;28;20039;-53
2023/08/23 01:57:58;;;;;;;3.63;1.73;;;15.00;99.90;;;;;;5032798;28;20026;-55
2023/08/23 02:00:24;;;;;;;3.90;1.77;;;14.90;99.90;;;;;;5015254;28;20033;-52
2023/08/23 02:02:52;;;;;;;3.58;1.77;;;14.90;99.90;;;;;;5032626;28;20489;-55
2023/08/23 02:05:17;;;;;;;6.20;2.30;;;14.90;99.90;;;;;;5032869;28;20049;-53
2023/08/23 02:07:45;;;;;;;5.45;1.83;;;14.90;99.90;;;;;;5032657;28;20316;-54
2023/08/23 02:10:11;;;;;;;6.03;2.38;;;14.90;99.90;;;;;;5032874;28;20040;-56
2023/08/23 02:12:36;;;;;;;4.78;1.92;;;14.80;99.90;;;;;;5014632;28;20033;-53
2023/08/23 02:15:02;;;;;;;3.42;1.70;;;14.80;99.90;;;;;;5014888;28;20367;-53
2023/08/23 02:17:28;;;;;;;5.85;1.95;;;14.70;99.90;;;;;;5032363;28;20030;-55
2023/08/23 02:19:54;;;;;;;6.75;2.20;;;14.70;99.90;;;;;;5015050;28;20041;-54
2023/08/23 02:22:19;;;;;;;4.68;1.80;;;14.70;99.90;;;;;;5014644;28;20076;-53
2023/08/23 02:24:45;;;;;;;3.85;2.10;;;14.70;99.90;;;;;;5014624;28;20037;-51
2023/08/23 02:27:10;;;;;;;6.57;2.20;;;14.80;99.90;;;;;;5032347;28;20026;-54
2023/08/23 02:29:36;;;;;;;3.88;2.08;;;14.80;99.90;;;;;;5014585;28;20065;-55
2023/08/23 02:32:02;;;;;;;4.10;1.98;;;14.90;99.90;;;;;;5032073;28;20155;-53
2023/08/23 02:34:27;;;;;;;4.70;2.00;;;14.80;99.90;;;;;;5014566;28;20045;-55
2023/08/23 02:36:53;;;;;;;3.67;1.90;;;14.80;99.90;;;;;;5032311;28;20022;-52
2023/08/23 02:39:19;;;;;;;5.18;1.98;;;14.70;99.90;;;;;;5032335;28;20033;-54
2023/08/23 02:41:44;;;;;;;4.88;2.17;;;14.70;99.90;;;;;;5014208;28;20029;-53
2023/08/23 02:44:10;;;;;;;8.35;2.65;;;14.80;99.90;;;;;;5014102;28;20042;-54
2023/08/23 02:46:36;;;;;;;5.05;1.95;;;14.70;99.90;;;;;;5014263;28;20037;-53
2023/08/23 02:49:01;;;;;;;6.10;2.00;;;14.70;99.90;;;;;;5030784;28;20091;-54
2023/08/23 02:51:27;;;;;;;6.13;2.53;;;14.80;99.90;;;;;;5031893;28;20120;-52
2023/08/23 02:53:53;;;;;;;7.43;2.50;;;14.80;99.90;;;;;;5014204;28;20029;-53
2023/08/23 02:56:18;;;;;;;4.95;2.28;;;14.80;99.90;;;;;;5014195;28;20033;-54
2023/08/23 02:58:44;;;;;;;6.13;2.15;;;14.70;99.90;;;;;;5013933;28;20033;-50
2023/08/23 03:01:11;;;;;;;5.38;2.25;;;14.70;99.90;;;;;;5013907;28;20038;-52
2023/08/23 03:03:36;;;;;;;5.35;2.28;;;14.70;99.90;;;;;;5013642;28;20033;-55
2023/08/23 03:06:02;;;;;;;6.00;2.10;;;14.70;99.90;;;;;;5031693;28;20079;-55
2023/08/23 03:08:28;;;;;;;4.45;2.05;;;14.60;99.90;;;;;;5013614;28;20440;-54
2023/08/23 03:11:04;;;;;;;6.65;2.00;;;14.60;99.90;;;;;;5013572;28;20041;-54
2023/08/23 03:13:30;;;;;;;6.32;1.85;;;14.60;99.90;;;;;;5031302;28;20083;-52
2023/08/23 03:15:57;;;;;;;7.53;2.45;;;14.60;99.90;;;;;;5031425;28;20042;-53
2023/08/23 03:18:23;;;;;;;6.00;2.17;;;14.60;99.90;;;;;;5013505;28;20029;-54
2023/08/23 03:20:49;;;;;;;5.20;2.00;;;14.70;99.90;;;;;;5013657;28;20037;-52
2023/08/23 03:23:17;;;;;;;6.40;2.30;;;14.60;99.90;;;;;;5013337;28;20026;-53
2023/08/23 03:25:48;;;;;;;5.25;3.05;;;14.60;99.90;;;;;;5013500;28;20029;-53
2023/08/23 03:28:13;;;;;;;4.70;2.20;;;14.60;99.90;;;;;;5013237;28;20517;-54
2023/08/23 03:30:40;;;;;;;5.60;2.42;;;14.50;99.90;;;;;;5013377;28;20112;-50
2023/08/23 03:33:06;;;;;;;9.00;2.53;;;14.50;99.90;;;;;;5013202;28;20029;-51
2023/08/23 03:35:33;;;;;;;4.00;2.10;;;14.50;99.90;;;;;;5013341;28;20029;-53
2023/08/23 03:37:59;;;;;;;4.10;2.17;;;14.40;99.90;;;;;;5031107;28;20131;-55
2023/08/23 03:40:25;;;;;;;6.75;2.33;;;14.40;99.90;;;;;;5013328;28;20030;-52
2023/08/23 03:42:51;;;;;;;7.78;3.15;;;14.40;99.90;;;;;;5012979;28;20604;-50
2023/08/23 03:45:20;;;;;;;4.65;2.55;;;14.40;99.90;;;;;;5013181;28;20517;-54
2023/08/23 03:47:46;;;;;;;5.65;2.55;;;14.40;99.90;;;;;;5013145;28;20066;-54
2023/08/23 03:50:14;;;;;;;6.88;2.47;;;14.40;99.90;;;;;;5013398;28;20037;-52
2023/08/23 03:52:40;;;;;;;6.78;2.53;;;14.40;99.90;;;;;;5012958;28;20095;-55
2023/08/23 03:55:06;;;;;;;4.20;2.30;;;14.40;99.90;;;;;;5013138;28;20494;-55
2023/08/23 03:57:32;;;;;;;4.72;2.40;;;14.50;99.90;;;;;;5012824;28;20033;-54
2023/08/23 03:59:57;;;;;;;4.65;2.50;;;14.50;99.90;;;;;;5030530;28;20030;-53
2023/08/23 04:02:23;;;;;;;8.57;3.13;;;14.50;99.90;;;;;;5013018;28;20103;-52
2023/08/23 04:04:48;;;;;;;5.32;2.28;;;14.50;99.90;;;;;;5030812;28;20032;-53
2023/08/23 04:07:15;;;;;;;5.13;2.45;;;14.60;99.90;;;;;;5012884;28;20053;-55
2023/08/23 04:09:41;;;;;;;8.55;2.85;;;14.50;99.90;;;;;;5030556;28;20029;-55
2023/08/23 04:12:08;;;;;;;9.10;3.00;;;14.50;99.90;;;;;;5030318;28;20432;-54
2023/08/23 04:14:35;;;;;;;6.28;2.97;;;14.50;99.90;;;;;;5030565;28;20036;-55
2023/08/23 04:17:02;;;;;;;7.80;3.17;;;14.50;99.90;;;;;;5013117;28;20026;-53
2023/08/23 04:19:27;;;;;;;7.95;3.13;;;14.50;99.90;;;;;;5012782;28;20029;-54
2023/08/23 04:21:54;;;;;;;6.75;3.03;;;14.60;99.90;;;;;;5012627;28;20486;-53
2023/08/23 04:24:20;;;;;;;8.70;3.38;;;14.60;99.90;;;;;;5012887;28;20029;-54
2023/08/23 04:26:46;;;;;;;7.18;2.83;;;14.60;99.90;;;;;;5012340;28;20033;-55
2023/08/23 04:29:12;;;;;;;10.52;3.17;;;14.60;99.90;;;;;;5030118;28;20386;-55
2023/08/23 04:31:38;;;;;;;8.15;3.13;;;14.60;99.90;;;;;;5012433;28;20065;-52
2023/08/23 04:34:11;;;;;;;13.27;3.88;;;14.50;99.90;;;;;;5006276;28;20474;-52
2023/08/23 04:36:38;;;;;;;6.97;2.90;;;14.50;99.90;;;;;;5012662;28;20397;-53
2023/08/23 04:39:04;;;;;;;7.63;3.20;;;14.50;99.90;;;;;;5012380;28;20037;-52
2023/08/23 04:41:30;;;;;;;7.65;3.30;;;14.50;99.90;;;;;;5009585;28;20555;-52
2023/08/23 04:43:56;;;;;;;7.10;3.00;;;14.50;99.90;;;;;;5030318;28;20560;-53
2023/08/23 04:46:21;;;;;;;8.88;3.55;;;14.50;99.90;;;;;;5008989;28;20026;-52
2023/08/23 04:48:47;;;;;;;7.70;3.42;;;14.50;99.90;;;;;;5030354;28;20493;-51
2023/08/23 04:51:15;;;;;;;6.60;2.85;;;14.50;99.90;;;;;;5011832;28;20083;-51
2023/08/23 04:53:41;;;;;;;6.97;3.38;;;14.50;99.90;;;;;;5011651;28;20099;-54
2023/08/23 04:56:06;;;;;;;6.47;3.20;;;14.50;99.90;;;;;;5012729;28;20071;-54
2023/08/23 04:58:32;;;;;;;9.10;3.72;;;14.50;99.90;;;;;;5012397;28;20470;-53
2023/08/23 05:01:03;;;;;;;9.00;3.25;;;14.60;99.90;;;;;;5011106;28;20022;-54
2023/08/23 05:03:29;;;;;;;6.10;3.25;;;14.60;99.90;;;;;;5012437;28;20112;-52
2023/08/23 05:05:55;;;;;;;10.85;3.47;;;14.60;99.90;;;;;;5012456;28;20095;-50
2023/08/23 05:08:21;;;;;;;9.20;4.15;;;14.60;99.90;;;;;;5011877;28;20037;-54
2023/08/23 05:10:54;;;;;;;7.72;3.72;;;14.70;99.90;;;;;;5012489;28;20026;-51
2023/08/23 05:13:20;;;;;;;9.23;3.65;;;14.70;99.90;;;;;;5015238;28;20038;-53
2023/08/23 05:15:53;;;;;;;11.20;4.15;;;14.80;99.90;;;;;;5033783;28;20113;-52
2023/08/23 05:18:19;;;;;;;9.98;4.20;;;14.90;99.90;;;;;;5015769;28;20120;-52
2023/08/23 05:20:45;;;;;;;8.20;3.63;;;14.90;99.90;;;;;;5015813;28;20026;-53
2023/08/23 05:23:10;;;;;;;9.23;3.95;;;14.90;99.90;;;;;;5015616;28;20397;-53
2023/08/23 05:25:36;;;;;;;8.75;4.10;;;15.00;99.90;;;;;;5015732;28;20033;-49
2023/08/23 05:28:02;;;;;;;9.88;4.00;;;15.10;99.90;;;;;;5033383;28;20164;-51
2023/08/23 05:30:29;;;;;;;9.95;4.18;;;15.10;99.90;;;;;;5015708;28;20041;-53
2023/08/23 05:32:55;;;;;;;10.55;4.45;;;15.20;99.90;;;;;;5015608;28;20456;-52
2023/08/23 05:35:22;;;;;;;8.02;3.95;;;15.20;99.90;;;;;;5033264;28;20057;-53
2023/08/23 05:37:48;;;;;;;9.05;3.80;;;15.30;99.90;;;;;;5015361;28;20548;-50
2023/08/23 05:40:13;;;;;;;8.15;3.58;;;15.30;99.90;;;;;;5015574;28;20029;-51
2023/08/23 05:42:39;;;;;;;8.07;3.13;;;15.30;99.90;;;;;;5015372;28;20033;-51
2023/08/23 05:45:05;;;;;;;8.52;4.00;;;15.40;99.90;;;;;;5015326;28;20095;-53
2023/08/23 05:47:31;;;;;;;9.55;4.15;;;15.50;99.90;;;;;;5032859;28;20064;-54
2023/08/23 05:49:56;;;;;;;9.68;3.72;;;15.80;99.90;;;;;;5015191;28;20072;-53
2023/08/23 05:52:22;;;;;;;7.03;3.80;;;16.10;99.90;;;;;;5015079;28;20477;-50
2023/08/23 05:54:48;;;;;;;11.25;4.07;;;16.30;99.90;;;;;;5032808;28;20030;-53
2023/08/23 05:57:13;;;;;;;10.35;4.65;;;16.40;99.90;;;;;;5032759;28;20026;-54
2023/08/23 05:59:39;;;;;;;10.10;4.45;;;16.40;99.90;;;;;;5033023;28;20033;-51
2023/08/23 06:02:05;;;;;;;7.53;4.13;;;16.50;99.90;;;;;;5032715;28;20123;-54
2023/08/23 06:04:31;;;;;;;10.15;4.90;;;16.60;99.90;;;;;;5032691;28;20034;-51
2023/08/23 06:06:57;;;;;;;9.75;5.10;;;16.80;99.90;;;;;;5032670;28;20039;-52
2023/08/23 06:09:23;;;;;;;11.40;5.07;;;17.00;99.90;;;;;;5032224;28;20405;-52
2023/08/23 06:11:48;;;;;;;8.48;4.57;;;17.10;99.90;;;;;;5032555;28;20022;-50
2023/08/23 06:14:24;;;;;;;10.90;4.15;;;17.20;99.90;;;;;;5032837;28;20057;-53
2023/08/23 06:16:50;;;;;;;7.78;4.13;;;17.40;99.90;;;;;;5032624;28;20022;-52
2023/08/23 06:19:16;;;;;;;11.23;4.63;;;17.50;99.90;;;;;;5032298;28;20041;-48
2023/08/23 06:21:42;;;;;;;11.02;4.50;;;17.60;99.90;;;;;;5032487;28;20390;-50
2023/08/23 06:24:08;;;;;;;13.25;4.70;;;17.60;99.90;;;;;;5032200;28;20083;-53
2023/08/23 06:26:34;;;;;;;12.27;4.47;;;17.70;99.90;;;;;;5031204;28;20037;-53
2023/08/23 06:29:00;;;;;;;11.55;4.53;;;17.80;99.90;;;;;;5032603;28;20044;-49
2023/08/23 06:31:25;;;;;;;10.73;4.95;;;17.90;99.90;;;;;;5032755;28;20064;-49
2023/08/23 06:33:51;;;;;;;16.80;5.10;;;17.90;99.90;;;;;;5032464;28;20036;-52
2023/08/23 06:36:17;;;;;;;8.50;4.57;;;17.90;99.90;;;;;;5032857;28;20065;-51
2023/08/23 06:38:42;;;;;;;9.85;4.25;;;17.90;99.90;;;;;;5032533;28;20056;-51
2023/08/23 06:41:08;;;;;;;10.27;4.60;;;17.90;99.90;;;;;;5032737;28;20060;-53
2023/08/23 06:43:34;;;;;;;12.63;5.10;;;18.00;99.90;;;;;;5032495;28;20038;-52
2023/08/23 06:46:01;;;;;;;11.15;5.50;;;18.10;99.90;;;;;;5032684;28;20044;-52
2023/08/23 06:48:27;;;;;;;9.82;4.43;;;18.20;99.90;;;;;;5032226;28;20029;-52
2023/08/23 06:50:54;;;;;;;9.73;5.15;;;18.20;99.90;;;;;;5032414;28;20063;-54
2023/08/23 06:53:20;;;;;;;12.05;5.30;;;18.10;99.90;;;;;;5032288;28;20037;-51
2023/08/23 06:55:46;;;;;;;12.27;5.38;;;18.40;99.90;;;;;;5032490;28;20026;-55
2023/08/23 06:58:12;;;;;;;10.93;4.75;;;18.50;99.90;;;;;;5032358;28;20402;-53
2023/08/23 07:00:37;;;;;;;11.60;5.07;;;18.70;99.90;;;;;;5032339;28;20063;-54
2023/08/23 07:03:04;;;;;;;8.80;5.18;;;18.70;99.90;;;;;;5031987;28;20034;-54
2023/08/23 07:05:29;;;;;;;8.68;4.78;;;18.70;99.90;;;;;;5032103;28;20033;-54
2023/08/23 07:07:55;;;;;;;10.52;4.90;;;18.80;99.90;;;;;;5032003;28;20087;-51
2023/08/23 07:10:21;;;;;;;9.65;4.90;;;18.80;99.90;;;;;;5014349;28;20640;-52
2023/08/23 07:12:46;;;;;;;9.55;4.80;;;19.00;99.90;;;;;;5031848;28;20026;-55
2023/08/23 07:15:12;;;;;;;11.75;5.28;;;19.20;99.90;;;;;;5032118;28;20064;-55
2023/08/23 07:17:38;;;;;;;8.40;5.20;;;19.40;99.90;;;;;;5014132;28;20029;-55
2023/08/23 07:20:05;;;;;;;8.63;4.47;;;19.60;99.90;;;;;;5032044;28;20037;-53
2023/08/23 07:22:30;;;;;;;9.98;4.70;;;19.60;99.90;;;;;;5031781;28;20127;-54
2023/08/23 07:24:56;;;;;;;13.70;5.28;;;19.70;99.90;;;;;;5031915;28;20113;-56
2023/08/23 07:27:22;;;;;;;8.73;4.40;;;19.80;99.90;;;;;;5031852;28;20444;-53
2023/08/23 07:29:47;;;;;;;10.25;5.30;;;19.90;99.90;;;;;;5031813;28;20026;-50
2023/08/23 07:32:13;;;;;;;8.77;4.57;;;20.00;99.90;;;;;;5031548;28;20030;-52
2023/08/23 07:34:38;;;;;;;8.52;5.05;;;20.10;99.90;;;;;;5031137;28;20033;-55
2023/08/23 07:37:05;;;;;;;12.77;5.55;;;20.30;99.90;;;;;;5030178;28;20485;-55
2023/08/23 07:39:31;;;;;;;9.98;5.53;;;20.40;99.90;;;;;;5031734;28;20029;-56
2023/08/23 07:41:56;;;;;;;9.75;5.50;;;20.50;99.90;;;;;;5031653;28;20049;-55
2023/08/23 07:44:22;;;;;;;11.25;5.53;;;20.50;99.90;;;;;;5030712;28;20068;-55
2023/08/23 07:46:47;;;;;;;9.50;5.25;;;20.70;99.90;;;;;;5031665;28;20493;-55
2023/08/23 07:49:14;;;;;;;9.23;4.88;;;20.80;99.90;;;;;;5031019;28;20470;-55
2023/08/23 07:51:40;;;;;;;10.45;5.28;;;20.80;99.90;;;;;;5030845;28;20465;-53
2023/08/23 07:54:07;;;;;;;13.65;6.22;;;20.90;99.90;;;;;;5031091;28;20103;-53
2023/08/23 07:56:32;;;;;;;11.77;5.47;;;21.10;99.90;;;;;;5031144;28;20072;-53
2023/08/23 07:58:58;;;;;;;10.18;5.28;;;21.20;99.90;;;;;;5030879;28;20119;-54
2023/08/23 08:01:24;;;;;;;12.45;4.80;;;21.40;99.90;;;;;;5030599;28;20025;-52
2023/08/23 08:03:51;;;;;;;10.70;5.47;;;21.60;99.90;;;;;;5030746;28;20032;-53
2023/08/23 08:06:17;;;;;;;8.70;4.82;;;21.60;99.90;;;;;;5030802;28;20120;-52
2023/08/23 08:08:43;;;;;;;8.80;4.40;;;21.60;99.90;;;;;;5030628;28;20034;-53
2023/08/23 08:11:12;;;;;;;8.93;4.22;;;21.70;99.90;;;;;;5030969;28;20025;-56
2023/08/23 08:13:38;;;;;;;10.90;5.40;;;21.70;99.90;;;;;;5030711;28;20064;-53
2023/08/23 08:16:12;;;;;;;11.23;4.20;;;21.80;99.90;;;;;;5030975;28;20057;-53
2023/08/23 08:18:39;;;;;;;11.02;4.88;;;21.80;99.90;;;;;;5030767;28;20122;-54
2023/08/23 08:21:04;;;;;;;8.02;4.97;;;21.90;99.90;;;;;;5030904;28;20030;-50
2023/08/23 08:23:30;;;;;;;8.38;4.70;;;22.00;99.90;;;;;;5030610;28;20022;-52
2023/08/23 08:25:57;;;;;;;10.40;5.07;;;22.10;99.90;;;;;;5030695;28;20033;-54
2023/08/23 08:28:22;;;;;;;6.82;3.97;;;22.10;99.90;;;;;;5030423;28;20052;-52
2023/08/23 08:30:48;;;;;;;13.73;5.57;;;22.30;99.90;;;;;;5030558;28;20478;-53
2023/08/23 08:33:14;;;;;;;10.70;4.38;;;22.30;99.90;;;;;;5030481;28;20032;-53
2023/08/23 08:35:40;;;;;;;8.93;4.90;;;22.40;99.90;;;;;;5030869;28;20030;-51
2023/08/23 08:38:06;;;;;;;9.02;4.32;;;22.50;99.90;;;;;;5030338;28;20033;-52
2023/08/23 08:40:32;;;;;;;7.25;4.07;;;22.50;99.90;;;;;;5030553;28;20033;-55
2023/08/23 08:42:59;;;;;;;9.55;4.30;;;22.50;99.90;;;;;;5030534;28;20041;-52
2023/08/23 08:45:25;;;;;;;11.23;4.57;;;22.60;99.90;;;;;;5030846;28;20037;-54
2023/08/23 08:47:51;;;;;;;8.30;5.00;;;22.80;99.90;;;;;;5034044;28;20030;-50
2023/08/23 08:50:17;;;;;;;7.43;4.00;;;22.90;99.90;;;;;;5034337;28;20068;-55
2023/08/23 08:52:50;;;;;;;10.18;4.85;;;22.90;99.90;;;;;;5033935;28;20108;-54
2023/08/23 08:55:18;;;;;;;9.73;4.28;;;23.00;99.90;;;;;;5015361;28;20075;-54
2023/08/23 08:57:46;;;;;;;8.80;4.63;;;23.20;99.90;;;;;;5013796;28;20033;-50
2023/08/23 09:00:12;;;;;;;10.15;4.97;;;23.30;99.90;;;;;;5030430;28;20044;-54
2023/08/23 09:02:39;;;;;;;9.50;3.90;;;23.40;99.90;;;;;;5032660;28;20084;-53
2023/08/23 09:05:06;;;;;;;7.70;4.70;;;23.40;99.90;;;;;;5012434;28;20044;-54
2023/08/23 09:07:32;;;;;;;9.18;4.95;;;23.50;99.90;;;;;;5012569;28;20394;-54
2023/08/23 09:09:58;;;;;;;10.32;5.07;;;23.50;99.90;;;;;;5030548;28;20041;-53
2023/08/23 09:12:24;;;;;;;9.88;3.72;;;23.50;99.90;;;;;;5031268;28;20053;-53
2023/08/23 09:14:50;;;;;;;9.90;4.55;;;23.50;99.90;;;;;;5030527;28;20140;-54
2023/08/23 09:17:20;;;;;;;12.00;4.68;;;23.50;99.90;;;;;;5029838;28;20091;-55
2023/08/23 09:19:45;;;;;;;7.80;4.05;;;23.50;99.90;;;;;;5030264;28;20037;-56
2023/08/23 09:22:11;;;;;;;7.22;3.95;;;23.60;99.90;;;;;;5030769;28;20037;-54
2023/08/23 09:24:36;;;;;;;8.13;3.90;;;23.60;99.90;;;;;;5030202;28;20044;-52
2023/08/23 09:27:02;;;;;;;6.63;3.80;;;23.50;99.90;;;;;;5029921;28;20029;-51
2023/08/23 09:29:28;;;;;;;8.15;4.20;;;23.70;99.90;;;;;;5030226;28;20061;-53
2023/08/23 09:31:57;;;;;;;9.95;4.60;;;23.80;99.90;;;;;;5030061;28;20040;-55
2023/08/23 09:34:23;;;;;;;7.65;3.92;;;24.00;99.90;;;;;;5030739;28;20099;-53
2023/08/23 09:36:49;;;;;;;9.25;4.88;;;23.90;99.90;;;;;;5033363;28;20033;-51
2023/08/23 09:39:17;;;;;;;11.52;4.90;;;23.90;99.90;;;;;;5033240;28;20036;-52
2023/08/23 09:41:43;;;;;;;7.30;3.92;;;24.00;99.90;;;;;;5033418;28;20388;-53
2023/08/23 09:44:09;;;;;;;6.22;3.53;;;24.20;99.90;;;;;;5015711;28;20112;-51
2023/08/23 09:46:36;;;;;;;7.18;3.03;;;24.10;99.90;;;;;;5033359;28;20029;-51
2023/08/23 09:49:04;;;;;;;8.02;4.07;;;24.10;99.90;;;;;;5033153;28;20037;-55
2023/08/23 09:51:37;;;;;;;9.55;4.00;;;24.30;99.90;;;;;;5033079;28;20029;-55
2023/08/23 09:54:17;;;;;;;8.07;4.05;;;24.30;99.90;;;;;;5018397;28;20136;-55
2023/08/23 09:56:43;;;;;;;7.10;3.75;;;24.50;99.90;;;;;;5033207;28;20033;-54
2023/08/23 09:59:12;;;;;;;6.72;3.58;;;24.60;99.90;;;;;;5032311;28;20032;-52
2023/08/23 10:01:38;;;;;;;6.68;3.13;;;24.80;99.90;;;;;;5032428;28;20034;-53
2023/08/23 10:04:06;;;;;;;7.10;4.55;;;25.00;99.90;;;;;;5032656;28;20045;-54
2023/08/23 10:06:34;;;;;;;6.05;3.50;;;25.10;99.90;;;;;;5032954;28;20030;-55
2023/08/23 10:09:00;;;;;;;7.93;3.73;;;25.20;99.90;;;;;;5032766;28;20037;-52
2023/08/23 10:11:28;;;;;;;10.43;3.58;;;25.20;99.90;;;;;;5032641;28;20485;-56
2023/08/23 10:13:57;;;;;;;9.02;4.35;;;25.30;99.90;;;;;;5033384;28;20041;-53
2023/08/23 10:16:24;;;;;;;11.00;3.63;;;25.20;99.90;;;;;;5015592;28;20175;-55
2023/08/23 10:18:52;;;;;;;9.38;3.42;;;25.00;99.90;;;;;;5033116;28;20037;-54
2023/08/23 10:21:17;;;;;;;8.10;4.45;;;24.80;99.90;;;;;;5032921;28;20038;-54
2023/08/23 10:23:43;;;;;;;7.35;3.70;;;24.80;99.90;;;;;;5032413;28;20033;-56
2023/08/23 10:26:21;;;;;;;6.50;3.63;;;24.80;99.90;;;;;;5032545;28;20518;-54
2023/08/23 10:28:52;;;;;;;8.00;3.85;;;25.00;99.90;;;;;;5032374;28;20680;-55
2023/08/23 10:31:27;;;;;;;8.60;3.95;;;25.10;99.90;;;;;;5032022;28;20071;-55
2023/08/23 10:33:57;;;;;;;7.80;4.05;;;25.30;99.90;;;;;;5032314;28;20022;-55
2023/08/23 10:36:28;;;;;;;6.20;3.50;;;25.20;99.90;;;;;;5032426;28;20167;-54
2023/08/23 10:38:57;;;;;;;8.93;4.30;;;25.10;99.90;;;;;;5032065;28;20072;-55
2023/08/23 10:41:24;;;;;;;5.78;3.13;;;25.00;99.90;;;;;;5032271;28;20064;-55
2023/08/23 10:43:51;;;;;;;8.85;3.80;;;25.00;99.90;;;;;;5031961;28;20079;-51
2023/08/23 10:46:19;;;;;;;6.20;3.25;;;25.20;99.90;;;;;;5032075;28;20116;-55
2023/08/23 10:48:45;;;;;;;6.57;3.70;;;25.40;99.90;;;;;;5031644;28;20029;-56
2023/08/23 10:51:12;;;;;;;7.55;3.35;;;25.80;99.90;;;;;;5031931;28;20021;-55
2023/08/23 10:53:40;;;;;;;6.55;3.70;;;26.10;99.90;;;;;;5032113;28;20029;-51
2023/08/23 10:56:07;;;;;;;6.68;3.67;;;26.10;99.90;;;;;;5032086;28;20021;-52
2023/08/23 10:58:33;;;;;;;7.50;3.60;;;26.10;99.90;;;;;;5031751;28;20033;-55
2023/08/23 11:00:59;;;;;;;6.38;2.97;;;26.10;99.90;;;;;;5031853;28;20466;-53
2023/08/23 11:03:28;;;;;;;8.82;3.30;;;26.00;99.90;;;;;;5031524;28;20108;-55
2023/08/23 11:05:55;;;;;;;9.48;3.33;;;25.90;99.90;;;;;;5031730;28;20083;-55
2023/08/23 11:08:22;;;;;;;7.38;3.75;;;26.10;99.90;;;;;;5030991;28;20037;-53
2023/08/23 11:10:48;;;;;;;5.25;3.13;;;26.40;99.90;;;;;;5030745;28;20479;-55
2023/08/23 11:13:13;;;;;;;6.93;3.42;;;26.40;99.90;;;;;;5031393;28;20087;-54
2023/08/23 11:15:43;;;;;;;6.07;3.17;;;26.60;99.40;;;;;;5031731;28;20022;-53
2023/08/23 11:18:10;;;;;;;5.97;2.83;;;26.70;99.30;;;;;;5031324;28;20034;-56
2023/08/23 11:20:36;;;;;;;9.02;2.97;;;26.70;99.70;;;;;;5031481;28;20044;-54
2023/08/23 11:23:02;;;;;;;5.80;4.15;;;26.70;99.70;;;;;;5027479;28;20095;-55
2023/08/23 11:25:27;;;;;;;4.93;3.40;;;26.60;99.10;;;;;;5028374;28;20041;-55
2023/08/23 11:27:53;;;;;;;11.27;4.00;;;26.60;98.90;;;;;;5027707;28;20055;-56
2023/08/23 11:30:22;;;;;;;5.43;3.58;;;26.70;99.10;;;;;;5027960;28;20433;-56
2023/08/23 11:32:48;;;;;;;4.32;2.90;;;26.80;98.90;;;;;;5029037;28;20469;-55
2023/08/23 11:35:16;;;;;;;6.18;3.17;;;26.80;98.80;;;;;;5028338;28;20036;-55
2023/08/23 11:37:42;;;;;;;6.25;3.47;;;26.80;99.30;;;;;;5028051;28;20048;-54
2023/08/23 11:40:10;;;;;;;5.90;3.28;;;26.60;98.90;;;;;;5027480;28;20029;-54
2023/08/23 11:42:37;;;;;;;5.85;3.40;;;26.60;98.70;;;;;;5027558;28;20048;-55
2023/08/23 11:45:07;;;;;;;6.45;3.35;;;26.40;98.90;;;;;;5025445;28;20037;-55
2023/08/23 11:47:34;;;;;;;7.35;2.95;;;26.20;98.10;;;;;;5028438;28;20029;-53
2023/08/23 11:50:00;;;;;;;7.63;2.80;;;26.10;98.60;;;;;;5027687;28;20064;-55
2023/08/23 11:52:29;;;;;;;7.13;2.90;;;26.20;99.60;;;;;;5029098;28;20022;-52
2023/08/23 11:54:55;;;;;;;6.20;2.95;;;26.30;98.80;;;;;;5027640;28;20434;-56
2023/08/23 11:57:21;;;;;;;7.07;2.70;;;26.60;98.60;;;;;;5027234;28;20120;-54
2023/08/23 11:59:47;;;;;;;7.05;2.70;;;26.80;98.00;;;;;;5027726;28;20099;-54
2023/08/23 12:02:12;;;;;;;6.38;3.00;;;26.80;98.00;;;;;;5027141;28;20410;-53
2023/08/23 12:04:42;;;;;;;5.25;2.70;;;26.80;97.90;;;;;;5027534;28;20030;-53
2023/08/23 12:07:09;;;;;;;6.60;2.45;;;26.70;97.40;;;;;;5025364;28;20666;-54
2023/08/23 12:09:35;;;;;;;4.22;2.30;;;26.50;98.00;;;;;;5026976;28;20367;-50
2023/08/23 12:12:02;;;;;;;4.05;1.92;;;26.50;98.00;;;;;;5027003;28;20037;-50
2023/08/23 12:14:28;;;;;;;4.90;1.92;;;26.40;97.40;;;;;;5025113;28;20777;-52
2023/08/23 12:16:54;;;;;;;4.38;2.10;;;26.70;96.40;;;;;;5027138;28;20108;-52
2023/08/23 12:19:21;;;;;;;4.70;2.03;;;26.70;96.00;;;;;;5027521;28;20037;-52
2023/08/23 12:21:46;;;;;;;4.05;1.85;;;26.50;95.90;;;;;;5008829;28;20029;-51
2023/08/23 12:24:12;;;;;;;3.03;1.90;;;26.30;95.30;;;;;;5026732;28;20476;-51
2023/08/23 12:26:38;;;;;;;5.28;1.60;;;26.30;95.40;;;;;;5027413;28;20045;-50
2023/08/23 12:29:04;;;;;;;2.88;1.50;;;26.30;96.20;;;;;;5026753;28;20033;-53
2023/08/23 12:31:29;;;;;;;3.45;1.50;;;26.50;92.10;;;;;;5026918;28;20088;-51
2023/08/23 12:33:55;;;;;;;4.50;1.70;;;26.90;90.40;;;;;;5011192;28;20034;-53
2023/08/23 12:36:21;;;;;;;2.92;1.83;;;26.90;88.90;;;;;;5026640;28;20519;-51
2023/08/23 12:38:47;;;;;;;4.75;1.85;;;27.00;90.30;;;;;;5027135;28;20469;-53
2023/08/23 12:41:13;;;;;;;6.97;1.77;;;27.00;88.00;;;;;;5026924;28;20482;-54
2023/08/23 12:43:40;;;;;;;3.83;1.63;;;27.00;90.10;;;;;;5026722;28;20510;-53